Terminal Aerodrome Forecast
Issued by NWS Twin Cities, MN

Home | Current Version | Previous Version | Graphics & Text | Print | Product List | Glossary On
Versions: 1 2 3 4 5 6 7 8 9 10 11 12 13 14 15 16
647
FTUS43 KMPX 232342
TAFEAU
TAF
KEAU 232342Z 2400/2424 02009KT P6SM OVC090
     FM240600 02012KT 4SM -SN OVC030
     FM240800 01013G22KT 2SM -SN BR OVC015=

USA.gov is the U.S. government's official web portal to all federal, state and local government web resources and services.